Time;durP1;ratioP1;P1;durP2;ratioP2;P2;SDS_P1;SDS_P2;PMS_P1;PMS_P2;Temp;Humidity;BMP_temperature;BMP_pressure;BME280_temperature;BME280_humidity;BME280_pressure;Samples;Min_cycle;Max_cycle;Signal;HPM_P1;HPM_P2
2022/01/16 00:04:06;;;;;;;28.73;22.17;;;3.60;99.90;;;;;;10503911;28;20215;-78
2022/01/16 00:07:33;;;;;;;26.77;21.77;;;3.60;99.90;;;;;;10506887;28;20196;-78
2022/01/16 00:12:36;;;;;;;27.00;22.20;;;3.50;99.90;;;;;;10486743;28;20211;-80
2022/01/16 00:17:49;;;;;;;26.10;20.87;;;3.60;99.90;;;;;;10518619;28;20193;-77
2022/01/16 00:22:51;;;;;;;29.37;22.10;;;3.50;99.90;;;;;;10521689;28;20596;-79
2022/01/16 00:27:54;;;;;;;31.10;25.07;;;3.50;99.90;;;;;;10517841;28;20577;-77
2022/01/16 00:33:00;;;;;;;27.53;23.43;;;3.50;99.90;;;;;;10504213;28;20295;-78
2022/01/16 00:38:02;;;;;;;29.27;23.70;;;3.60;99.90;;;;;;10517004;28;20200;-78
2022/01/16 00:43:06;;;;;;;29.40;22.43;;;3.70;99.90;;;;;;10499891;28;20643;-79
2022/01/16 00:48:08;;;;;;;28.90;23.40;;;3.80;99.90;;;;;;10505712;28;20219;-80
2022/01/16 00:53:10;;;;;;;29.27;23.77;;;3.80;99.90;;;;;;10539536;22;20227;-77
2022/01/16 00:58:14;;;;;;;27.83;21.50;;;3.70;99.90;;;;;;10504031;28;20286;-76
2022/01/16 01:03:17;;;;;;;29.53;23.67;;;3.60;99.90;;;;;;10515715;28;20230;-77
2022/01/16 01:08:19;;;;;;;31.50;23.17;;;3.60;99.90;;;;;;10500410;28;20192;-76
2022/01/16 01:13:24;;;;;;;27.17;22.20;;;3.50;99.90;;;;;;10504419;28;20304;-78
2022/01/16 01:18:27;;;;;;;29.10;23.77;;;3.40;99.90;;;;;;10504776;28;20200;-77
2022/01/16 01:23:30;;;;;;;29.53;24.13;;;3.30;99.90;;;;;;10519000;28;20238;-77
2022/01/16 01:28:33;;;;;;;28.60;23.33;;;3.30;99.90;;;;;;10516742;28;20202;-77
2022/01/16 01:33:35;;;;;;;33.07;24.83;;;3.30;99.90;;;;;;10512950;28;20670;-77
2022/01/16 01:38:37;;;;;;;28.90;24.30;;;3.40;99.90;;;;;;10516306;28;20205;-77
2022/01/16 01:54:20;;;;;;;31.07;25.23;;;3.50;99.90;;;;;;10517240;28;20705;-77
2022/01/16 01:59:23;;;;;;;33.80;26.10;;;3.60;99.90;;;;;;10491820;28;20196;-77
2022/01/16 02:04:25;;;;;;;31.70;24.53;;;3.60;99.90;;;;;;10494370;28;20276;-77
2022/01/16 02:09:28;;;;;;;36.37;27.20;;;3.70;99.90;;;;;;10513166;28;20195;-77
2022/01/16 02:14:35;;;;;;;32.90;25.80;;;3.80;99.90;;;;;;10514903;28;20233;-77
2022/01/16 02:31:00;;;;;;;31.77;26.40;;;3.90;99.90;;;;;;10506088;28;20189;-76
2022/01/16 02:36:02;;;;;;;33.47;25.67;;;3.90;99.90;;;;;;10524535;28;20216;-77
2022/01/16 02:41:05;;;;;;;33.10;25.80;;;3.90;99.90;;;;;;10503519;28;20243;-77
2022/01/16 02:51:28;;;;;;;31.73;24.37;;;3.90;99.90;;;;;;10489750;28;20284;-77
2022/01/16 02:56:35;;;;;;;32.60;25.10;;;3.90;99.90;;;;;;10514826;28;20220;-77
2022/01/16 03:01:37;;;;;;;30.43;25.27;;;3.90;99.90;;;;;;10507898;28;20212;-77
2022/01/16 03:06:39;;;;;;;34.03;26.20;;;3.90;99.90;;;;;;10532149;28;20675;-77
2022/01/16 03:11:47;;;;;;;31.23;25.33;;;3.90;99.90;;;;;;10509310;28;20220;-77
2022/01/16 03:16:52;;;;;;;33.90;26.03;;;3.90;99.90;;;;;;10531772;28;20234;-77
2022/01/16 03:21:54;;;;;;;32.40;25.10;;;3.90;99.90;;;;;;10541312;28;20224;-77
2022/01/16 03:27:00;;;;;;;33.23;26.27;;;3.80;99.90;;;;;;10508075;28;20649;-77
2022/01/16 03:32:05;;;;;;;33.67;26.03;;;3.80;99.90;;;;;;10513687;28;20675;-77
2022/01/16 03:37:08;;;;;;;31.13;26.33;;;3.80;99.90;;;;;;10507725;28;20679;-77
2022/01/16 03:42:11;;;;;;;34.07;26.17;;;3.80;99.90;;;;;;10512384;28;20729;-77
2022/01/16 03:47:13;;;;;;;32.07;25.17;;;3.90;99.90;;;;;;10473343;28;20251;-77
2022/01/16 03:52:15;;;;;;;28.90;24.27;;;3.90;99.90;;;;;;10498121;28;20191;-77
2022/01/16 03:57:19;;;;;;;27.10;22.67;;;3.90;99.90;;;;;;10509627;28;20231;-77
2022/01/16 04:02:21;;;;;;;27.60;24.00;;;3.90;99.90;;;;;;10490141;28;20587;-77
2022/01/16 04:07:28;;;;;;;29.10;24.73;;;3.80;99.90;;;;;;10509647;28;20207;-77
2022/01/16 04:12:33;;;;;;;25.80;22.13;;;3.70;99.90;;;;;;10489944;28;20660;-77
2022/01/16 04:17:35;;;;;;;30.43;23.30;;;3.60;99.90;;;;;;10527028;28;20560;-77
2022/01/16 04:22:38;;;;;;;29.47;24.00;;;3.50;99.90;;;;;;10508290;28;20219;-77
2022/01/16 04:27:43;;;;;;;28.13;23.87;;;3.40;99.90;;;;;;10508331;28;20216;-77
2022/01/16 04:32:45;;;;;;;30.57;24.80;;;3.30;99.90;;;;;;10508127;28;20284;-77
2022/01/16 04:37:47;;;;;;;31.53;25.37;;;3.20;99.90;;;;;;10526025;28;20695;-76
2022/01/16 04:48:10;;;;;;;27.30;23.20;;;3.10;99.90;;;;;;10526555;28;20199;-77
2022/01/16 04:53:12;;;;;;;28.17;23.67;;;3.10;99.90;;;;;;10510354;28;20231;-77
2022/01/16 04:58:15;;;;;;;29.30;24.43;;;3.00;99.90;;;;;;10530789;28;20196;-78
2022/01/16 05:03:17;;;;;;;25.97;22.83;;;3.00;99.90;;;;;;10493089;28;20224;-78
2022/01/16 05:08:20;;;;;;;27.47;24.50;;;3.10;99.90;;;;;;10529413;28;20196;-78
2022/01/16 05:13:31;;;;;;;28.87;24.30;;;3.10;99.90;;;;;;10493856;28;20219;-77
2022/01/16 05:18:35;;;;;;;34.40;24.77;;;3.20;99.90;;;;;;10512548;28;20196;-77
2022/01/16 05:23:37;;;;;;;27.50;23.40;;;3.30;99.90;;;;;;10475688;28;20441;-78
2022/01/16 05:28:40;;;;;;;27.60;22.93;;;3.30;99.90;;;;;;10511813;28;20219;-78
2022/01/16 05:33:42;;;;;;;25.63;21.93;;;3.30;99.90;;;;;;10493164;28;20213;-77
2022/01/16 05:38:45;;;;;;;25.53;21.87;;;3.30;99.90;;;;;;10529175;28;20286;-78
2022/01/16 05:43:49;;;;;;;27.10;21.77;;;3.40;99.90;;;;;;10513546;28;20235;-78
2022/01/16 05:48:51;;;;;;;26.87;23.10;;;3.40;99.90;;;;;;10508721;28;20198;-78
2022/01/16 05:53:56;;;;;;;25.87;22.77;;;3.40;99.90;;;;;;10473285;28;20227;-77
2022/01/16 05:58:59;;;;;;;23.60;21.07;;;3.40;99.90;;;;;;10521864;28;20249;-77
2022/01/16 06:04:01;;;;;;;21.67;19.37;;;3.40;99.90;;;;;;10489748;28;20581;-77
2022/01/16 06:09:04;;;;;;;23.70;20.87;;;3.30;99.90;;;;;;10458327;28;20657;-77
2022/01/16 06:14:07;;;;;;;24.63;21.50;;;3.20;99.90;;;;;;10486071;28;20212;-77
2022/01/16 06:19:09;;;;;;;25.70;22.50;;;3.10;99.90;;;;;;10510045;28;20201;-77
2022/01/16 06:24:11;;;;;;;24.73;21.30;;;3.00;99.90;;;;;;10495865;28;20247;-77
2022/01/16 06:29:15;;;;;;;24.53;21.70;;;3.00;99.90;;;;;;10492373;28;20647;-77
2022/01/16 06:34:17;;;;;;;23.93;21.30;;;2.90;99.90;;;;;;10498809;28;20219;-76
2022/01/16 06:39:19;;;;;;;24.50;21.60;;;2.90;99.90;;;;;;10491548;28;20221;-77
2022/01/16 06:44:23;;;;;;;26.43;23.10;;;2.80;99.90;;;;;;10499519;28;20228;-77
2022/01/16 06:49:25;;;;;;;23.83;21.10;;;2.70;99.90;;;;;;10491584;28;20241;-77
2022/01/16 06:54:27;;;;;;;24.43;21.40;;;2.60;99.90;;;;;;10569406;22;20713;-81
2022/01/16 06:59:32;;;;;;;23.77;21.10;;;2.50;99.90;;;;;;10529883;28;20203;-79
2022/01/16 07:04:34;;;;;;;23.70;20.73;;;2.40;99.90;;;;;;10489448;28;20240;-81
2022/01/16 07:09:36;;;;;;;23.90;21.40;;;2.30;99.90;;;;;;10494658;28;20203;-79
2022/01/16 07:14:40;;;;;;;27.50;21.90;;;2.10;99.90;;;;;;10490907;28;20307;-80
2022/01/16 07:19:42;;;;;;;23.40;20.90;;;2.10;99.90;;;;;;10530197;28;20188;-81
2022/01/16 07:24:44;;;;;;;23.63;20.90;;;2.00;99.90;;;;;;10509282;28;20230;-81
2022/01/16 07:29:48;;;;;;;25.20;21.70;;;2.00;99.90;;;;;;10512681;28;20196;-81
2022/01/16 07:34:50;;;;;;;22.93;20.30;;;2.00;99.90;;;;;;10492887;28;20280;-81
2022/01/16 07:39:52;;;;;;;22.23;19.93;;;1.90;99.90;;;;;;10510826;28;20192;-80
2022/01/16 07:44:55;;;;;;;24.37;20.90;;;1.80;99.90;;;;;;10527505;28;20244;-81
2022/01/16 07:49:57;;;;;;;24.23;21.00;;;1.80;99.90;;;;;;10493268;28;20196;-81
2022/01/16 07:54:59;;;;;;;25.17;22.50;;;1.80;99.90;;;;;;10511408;28;20283;-81
2022/01/16 08:00:05;;;;;;;25.77;22.93;;;1.80;99.90;;;;;;10506832;28;20241;-81
2022/01/16 08:05:15;;;;;;;22.40;19.90;;;1.80;99.90;;;;;;10506758;28;20216;-81
2022/01/16 08:10:17;;;;;;;27.30;23.37;;;1.90;99.90;;;;;;10506762;28;20603;-81
2022/01/16 08:15:20;;;;;;;26.17;23.17;;;2.00;99.90;;;;;;10524403;28;20314;-81
2022/01/16 08:20:22;;;;;;;26.00;23.20;;;2.20;99.90;;;;;;10521807;28;20192;-81
2022/01/16 08:25:26;;;;;;;18.70;16.00;;;2.40;99.90;;;;;;10506075;28;20238;-81
2022/01/16 08:30:29;;;;;;;20.77;18.07;;;2.70;99.90;;;;;;10522714;28;20200;-79
2022/01/16 08:35:31;;;;;;;25.00;22.30;;;2.70;99.90;;;;;;10506109;28;20247;-81
2022/01/16 08:40:33;;;;;;;27.03;23.13;;;2.70;99.90;;;;;;10504257;28;20225;-81
2022/01/16 08:45:38;;;;;;;26.80;22.97;;;2.80;99.90;;;;;;10507023;28;20219;-82
2022/01/16 08:50:40;;;;;;;27.37;24.30;;;2.90;99.90;;;;;;10507372;28;20196;-81
2022/01/16 08:55:43;;;;;;;25.13;22.43;;;3.00;99.90;;;;;;10501954;28;20225;-80
2022/01/16 09:00:47;;;;;;;26.70;23.90;;;3.20;99.90;;;;;;10507448;28;20204;-81
2022/01/16 09:05:52;;;;;;;29.53;23.97;;;3.30;99.90;;;;;;10509281;28;20216;-80
2022/01/16 09:10:54;;;;;;;24.87;22.27;;;3.40;99.90;;;;;;10503566;28;20192;-82
2022/01/16 09:15:58;;;;;;;27.37;22.00;;;3.50;99.90;;;;;;10511136;28;20221;-81
2022/01/16 09:21:01;;;;;;;26.60;23.30;;;3.60;99.90;;;;;;10520669;28;20208;-81
2022/01/16 09:26:03;;;;;;;23.90;21.17;;;3.70;99.90;;;;;;10526106;28;20581;-78
2022/01/16 09:31:07;;;;;;;26.60;23.70;;;3.80;99.90;;;;;;10500231;28;20677;-79
2022/01/16 09:36:09;;;;;;;25.70;23.00;;;3.80;99.90;;;;;;10509218;28;20252;-80
2022/01/16 09:41:50;;;;;;;25.40;22.80;;;3.80;99.90;;;;;;10474235;28;20240;-80
2022/01/16 09:47:51;;;;;;;28.07;25.03;;;3.90;99.90;;;;;;10486375;28;20252;-79
2022/01/16 09:52:55;;;;;;;29.47;25.67;;;3.90;99.90;;;;;;10493505;28;20720;-77
2022/01/16 09:57:59;;;;;;;27.70;23.17;;;4.00;99.90;;;;;;10535471;28;20196;-78
2022/01/16 10:03:02;;;;;;;21.87;18.47;;;4.00;99.90;;;;;;10520572;28;20702;-77
2022/01/16 10:08:08;;;;;;;30.10;22.87;;;4.20;99.90;;;;;;10536778;28;20192;-78
2022/01/16 10:13:22;;;;;;;27.70;24.20;;;4.30;99.90;;;;;;10538184;28;20198;-80
2022/01/16 10:18:36;;;;;;;26.80;22.83;;;4.40;99.90;;;;;;10519607;28;20197;-78
2022/01/16 10:23:41;;;;;;;25.30;22.70;;;4.50;99.90;;;;;;10506840;28;20212;-77
2022/01/16 10:28:43;;;;;;;26.57;21.50;;;4.60;99.90;;;;;;10530121;28;20204;-79
2022/01/16 10:33:45;;;;;;;24.40;21.70;;;4.60;99.90;;;;;;10516880;28;20706;-78
2022/01/16 10:39:05;;;;;;;25.60;22.90;;;4.60;99.90;;;;;;10518731;28;20206;-79
2022/01/16 10:44:30;;;;;;;25.97;23.30;;;4.60;99.90;;;;;;10546989;28;20277;-81
2022/01/16 10:49:36;;;;;;;25.90;22.27;;;4.80;99.90;;;;;;10495121;28;20625;-80
2022/01/16 10:54:41;;;;;;;24.53;21.93;;;4.90;99.90;;;;;;10547006;28;20227;-79
2022/01/16 10:59:45;;;;;;;25.27;22.53;;;5.00;99.90;;;;;;10531135;28;20267;-82
2022/01/16 11:04:47;;;;;;;27.07;24.17;;;5.10;99.90;;;;;;10530631;28;20312;-81
2022/01/16 11:09:51;;;;;;;26.13;23.13;;;5.20;99.90;;;;;;10507848;28;20207;-79
2022/01/16 11:14:53;;;;;;;27.93;23.07;;;5.30;99.90;;;;;;10533056;28;20649;-80
2022/01/16 11:19:55;;;;;;;27.80;23.73;;;5.40;99.90;;;;;;10516733;28;20670;-82
2022/01/16 11:25:10;;;;;;;27.37;23.83;;;5.40;99.90;;;;;;10544429;28;20757;-79
2022/01/16 11:30:13;;;;;;;26.70;23.80;;;5.40;99.90;;;;;;10495401;28;20632;-80
2022/01/16 11:35:15;;;;;;;26.90;24.00;;;5.40;99.90;;;;;;10540106;28;20235;-80
2022/01/16 11:40:30;;;;;;;30.00;25.40;;;5.50;99.90;;;;;;10507962;28;20202;-79
2022/01/16 11:45:32;;;;;;;26.47;23.60;;;5.60;99.90;;;;;;10549033;28;20278;-82
2022/01/16 11:50:35;;;;;;;29.67;26.23;;;5.60;99.90;;;;;;10513098;28;20189;-81
2022/01/16 11:55:39;;;;;;;31.33;26.20;;;5.60;99.90;;;;;;10520505;28;20258;-81
2022/01/16 12:00:48;;;;;;;31.50;26.30;;;5.70;99.90;;;;;;10476434;28;20274;-80
2022/01/16 12:05:52;;;;;;;30.03;26.77;;;5.70;99.90;;;;;;10520241;28;20687;-81
2022/01/16 12:10:57;;;;;;;31.53;27.27;;;5.70;99.90;;;;;;10510291;28;20195;-82
2022/01/16 12:16:32;;;;;;;36.40;27.90;;;5.70;99.90;;;;;;10526206;28;20633;-82
2022/01/16 12:21:34;;;;;;;32.83;27.07;;;5.60;99.90;;;;;;10506061;28;20252;-84
2022/01/16 12:26:38;;;;;;;33.13;25.37;;;5.70;99.90;;;;;;10506026;28;20587;-85
2022/01/16 12:31:40;;;;;;;31.70;26.40;;;5.70;99.90;;;;;;10527834;28;20184;-85
2022/01/16 12:36:42;;;;;;;30.07;23.27;;;5.70;99.90;;;;;;10546123;28;20212;-85
2022/01/16 12:41:46;;;;;;;29.00;23.67;;;5.80;99.90;;;;;;10485931;28;20311;-80
2022/01/16 12:46:51;;;;;;;28.10;22.60;;;5.80;99.90;;;;;;10505450;28;20694;-80
2022/01/16 12:51:57;;;;;;;23.87;19.70;;;5.80;99.90;;;;;;10525775;28;20671;-81
2022/01/16 12:57:02;;;;;;;20.80;17.63;;;5.90;99.90;;;;;;10541539;28;20686;-80
2022/01/16 13:02:06;;;;;;;16.80;14.70;;;6.00;99.90;;;;;;10541252;28;20681;-81
2022/01/16 13:07:10;;;;;;;20.17;15.50;;;6.10;99.90;;;;;;10503311;28;20217;-80
2022/01/16 13:12:15;;;;;;;15.67;13.37;;;6.20;99.90;;;;;;10510897;28;20196;-81
2022/01/16 13:17:17;;;;;;;14.93;13.00;;;6.20;99.90;;;;;;10523040;28;20212;-80
2022/01/16 13:22:23;;;;;;;14.27;12.73;;;6.20;99.90;;;;;;10522502;28;20679;-81
2022/01/16 13:27:28;;;;;;;17.10;14.50;;;6.10;99.90;;;;;;10521812;28;20218;-81
2022/01/16 13:32:33;;;;;;;17.63;13.60;;;6.10;99.90;;;;;;10522106;28;20721;-81
2022/01/16 13:37:37;;;;;;;15.23;13.70;;;6.10;99.90;;;;;;10505561;28;20223;-80
2022/01/16 13:42:50;;;;;;;14.80;13.23;;;6.00;99.90;;;;;;10520742;28;20208;-77
2022/01/16 13:48:01;;;;;;;15.10;12.20;;;6.10;99.90;;;;;;10536853;28;20222;-77
2022/01/16 13:53:05;;;;;;;15.43;12.80;;;6.00;99.90;;;;;;10520846;28;20574;-78
2022/01/16 13:58:15;;;;;;;16.53;13.03;;;6.00;99.90;;;;;;10522186;28;20184;-78
2022/01/16 14:03:20;;;;;;;16.10;14.40;;;6.10;99.90;;;;;;10540044;28;20229;-78
2022/01/16 14:08:25;;;;;;;16.50;13.97;;;6.10;99.90;;;;;;10501467;28;20199;-79
2022/01/16 14:13:32;;;;;;;16.13;13.50;;;6.20;99.90;;;;;;10520615;28;20226;-78
2022/01/16 14:23:57;;;;;;;14.30;12.47;;;6.20;99.90;;;;;;10533915;28;20227;-79
2022/01/16 14:29:00;;;;;;;14.30;12.80;;;6.30;99.90;;;;;;10522246;28;20195;-78
2022/01/16 14:34:02;;;;;;;13.33;11.90;;;6.30;99.90;;;;;;10522835;28;20228;-78
2022/01/16 14:39:05;;;;;;;12.47;10.80;;;6.30;99.90;;;;;;10540584;28;20196;-78
2022/01/16 14:44:08;;;;;;;16.23;13.97;;;6.20;99.90;;;;;;10547245;28;20879;-78
2022/01/16 14:49:10;;;;;;;14.27;12.30;;;6.20;99.90;;;;;;10528695;28;20192;-78
2022/01/16 14:54:14;;;;;;;13.20;11.23;;;6.20;99.90;;;;;;10546579;28;20220;-78
2022/01/16 14:59:17;;;;;;;13.30;11.83;;;6.20;99.90;;;;;;10528448;28;20211;-78
2022/01/16 15:04:20;;;;;;;12.87;11.57;;;6.20;99.90;;;;;;10488790;28;20746;-80
2022/01/16 15:09:22;;;;;;;13.27;11.87;;;6.20;99.90;;;;;;10510188;28;20647;-80
2022/01/16 15:14:25;;;;;;;14.43;12.40;;;6.20;99.90;;;;;;10531503;28;20211;-79
2022/01/16 15:19:32;;;;;;;13.77;12.37;;;6.20;99.90;;;;;;10510519;28;20570;-80
2022/01/16 15:24:34;;;;;;;12.67;11.37;;;6.10;99.90;;;;;;10544607;28;20219;-79
2022/01/16 15:29:38;;;;;;;12.57;11.27;;;6.20;99.90;;;;;;10510945;28;20210;-80
2022/01/16 15:34:40;;;;;;;11.83;10.47;;;6.10;99.90;;;;;;10471975;28;20278;-79
2022/01/16 15:39:43;;;;;;;11.90;10.40;;;6.10;99.90;;;;;;10522313;28;20302;-79
2022/01/16 15:44:47;;;;;;;12.07;10.20;;;6.10;99.90;;;;;;10476419;28;20226;-79
2022/01/16 15:49:49;;;;;;;10.70;9.63;;;6.00;99.90;;;;;;10528874;28;20585;-81
2022/01/16 15:54:52;;;;;;;10.50;7.93;;;6.00;99.90;;;;;;10542993;28;20635;-80
2022/01/16 15:59:56;;;;;;;10.43;9.33;;;6.00;99.90;;;;;;10509328;28;20200;-80
2022/01/16 16:04:58;;;;;;;12.47;11.17;;;6.00;99.90;;;;;;10504452;28;20319;-79
2022/01/16 16:10:00;;;;;;;10.33;9.27;;;6.00;99.90;;;;;;10501708;28;20420;-80
2022/01/16 16:15:05;;;;;;;10.90;9.60;;;6.00;99.90;;;;;;10538929;28;20656;-80
2022/01/16 16:20:08;;;;;;;10.53;9.53;;;6.10;99.90;;;;;;10507089;28;20283;-81
2022/01/16 16:25:13;;;;;;;10.27;9.27;;;6.00;99.90;;;;;;10466746;28;20221;-78
2022/01/16 16:30:18;;;;;;;11.27;8.93;;;6.10;99.90;;;;;;10494917;28;20224;-80
2022/01/16 16:35:24;;;;;;;11.20;10.10;;;6.00;99.90;;;;;;10537977;28;20216;-80
2022/01/16 16:40:27;;;;;;;14.87;10.10;;;6.10;99.90;;;;;;10493623;28;20208;-80
2022/01/16 16:45:31;;;;;;;12.60;10.03;;;6.10;99.90;;;;;;10544042;28;20224;-79
2022/01/16 16:50:33;;;;;;;11.07;9.30;;;6.20;99.90;;;;;;10503039;28;20295;-79
2022/01/16 16:55:36;;;;;;;12.10;10.90;;;6.20;99.90;;;;;;10517783;28;20216;-79
2022/01/16 17:00:39;;;;;;;10.40;9.37;;;6.30;99.90;;;;;;10507993;28;20204;-80
2022/01/16 17:05:42;;;;;;;10.97;9.87;;;6.30;99.90;;;;;;10517283;28;20262;-80
2022/01/16 17:10:44;;;;;;;12.27;11.07;;;6.40;99.90;;;;;;10546376;28;20267;-80
2022/01/16 17:15:48;;;;;;;12.07;10.87;;;6.40;99.90;;;;;;10544944;28;20208;-81
2022/01/16 17:20:50;;;;;;;14.20;12.70;;;6.40;99.90;;;;;;10493275;28;20227;-79
2022/01/16 17:25:52;;;;;;;13.73;11.87;;;6.40;99.90;;;;;;10515102;28;20246;-78
2022/01/16 17:30:57;;;;;;;15.17;13.40;;;6.40;99.90;;;;;;10472003;28;20223;-80
2022/01/16 17:35:59;;;;;;;15.60;14.00;;;6.40;99.90;;;;;;10496069;28;20207;-80
2022/01/16 17:41:01;;;;;;;17.03;14.70;;;6.40;99.90;;;;;;10515231;28;20202;-79
2022/01/16 17:46:05;;;;;;;16.10;13.50;;;6.40;99.90;;;;;;10530167;28;20225;-80
2022/01/16 17:51:07;;;;;;;18.43;16.53;;;6.30;99.90;;;;;;10510510;28;20628;-81
2022/01/16 17:56:09;;;;;;;22.53;20.27;;;6.30;99.90;;;;;;10486221;28;20220;-80
2022/01/16 18:01:13;;;;;;;21.60;19.30;;;6.20;99.90;;;;;;10520833;28;20199;-82
2022/01/16 18:06:15;;;;;;;21.40;18.77;;;6.20;99.90;;;;;;10526948;28;20302;-79
2022/01/16 18:11:17;;;;;;;22.43;19.40;;;6.10;99.90;;;;;;10495048;28;20200;-80
2022/01/16 18:16:21;;;;;;;22.60;20.07;;;6.10;99.90;;;;;;10539892;28;20330;-80
2022/01/16 18:21:23;;;;;;;22.90;19.93;;;6.10;99.90;;;;;;10480200;28;20206;-81
2022/01/16 18:26:25;;;;;;;21.77;19.20;;;6.10;99.90;;;;;;10467507;28;20255;-80
2022/01/16 18:31:29;;;;;;;22.20;19.00;;;6.00;99.90;;;;;;10484510;28;20281;-81
2022/01/16 18:36:31;;;;;;;22.87;17.63;;;6.00;99.90;;;;;;10494980;28;20212;-82
2022/01/16 18:41:33;;;;;;;20.73;16.60;;;5.90;99.90;;;;;;10522104;28;20288;-82
2022/01/16 18:46:37;;;;;;;21.43;17.67;;;5.90;99.90;;;;;;10515102;28;20226;-79
2022/01/16 18:51:41;;;;;;;22.20;17.93;;;5.80;99.90;;;;;;10514359;28;20667;-79
2022/01/16 18:56:43;;;;;;;21.80;19.40;;;5.80;99.90;;;;;;10523363;28;20224;-82
2022/01/16 19:01:46;;;;;;;20.47;17.80;;;5.70;99.90;;;;;;10497354;28;20569;-82
2022/01/16 19:06:49;;;;;;;19.97;17.17;;;5.70;99.90;;;;;;10516572;28;20224;-81
2022/01/16 19:11:51;;;;;;;18.77;16.77;;;5.70;99.90;;;;;;10528193;28;20261;-81
2022/01/16 19:16:54;;;;;;;20.57;18.40;;;5.60;99.90;;;;;;10542618;28;20572;-80
2022/01/16 19:21:57;;;;;;;18.70;16.83;;;5.60;99.90;;;;;;10528552;28;20223;-80
2022/01/16 19:27:01;;;;;;;16.80;15.03;;;5.60;99.90;;;;;;10492860;28;20228;-80
2022/01/16 19:32:08;;;;;;;17.37;15.30;;;5.50;99.90;;;;;;10499777;28;20197;-81
2022/01/16 19:37:10;;;;;;;19.47;17.50;;;5.50;99.90;;;;;;10466808;28;20221;-81
2022/01/16 19:42:17;;;;;;;21.00;18.80;;;5.50;99.90;;;;;;10517004;28;20199;-82
2022/01/16 19:47:20;;;;;;;17.47;15.60;;;5.50;99.90;;;;;;10514344;28;20227;-81
2022/01/16 19:52:24;;;;;;;18.13;16.07;;;5.50;99.90;;;;;;10504255;28;20250;-78
2022/01/16 19:57:29;;;;;;;19.60;17.10;;;5.40;99.90;;;;;;10515244;28;20216;-80
2022/01/16 20:02:35;;;;;;;18.20;16.10;;;5.40;99.90;;;;;;10492862;28;20199;-80
2022/01/16 20:07:38;;;;;;;15.27;13.10;;;5.40;99.90;;;;;;10526430;28;20224;-80
2022/01/16 20:12:44;;;;;;;15.03;13.53;;;5.40;99.90;;;;;;10521094;28;20188;-79
2022/01/16 20:17:55;;;;;;;16.63;14.87;;;5.40;99.90;;;;;;10503492;28;20224;-81
2022/01/16 20:23:00;;;;;;;15.03;13.53;;;5.50;99.90;;;;;;10498129;28;20615;-78
2022/01/16 20:28:07;;;;;;;12.60;11.37;;;5.50;99.90;;;;;;10495828;28;20195;-80
2022/01/16 20:33:15;;;;;;;25.90;23.10;;;5.40;99.90;;;;;;10499201;28;20192;-82
2022/01/16 20:38:19;;;;;;;13.87;12.40;;;5.50;99.90;;;;;;10502213;28;20188;-81
2022/01/16 20:43:22;;;;;;;13.13;11.83;;;5.50;99.90;;;;;;10482483;28;20722;-80
2022/01/16 20:48:40;;;;;;;13.40;12.00;;;5.50;99.90;;;;;;10503587;28;20548;-79
2022/01/16 20:53:42;;;;;;;15.10;13.70;;;5.60;99.90;;;;;;10503020;28;20233;-81
2022/01/16 20:58:47;;;;;;;16.00;14.30;;;5.70;99.90;;;;;;10508622;28;20193;-81
2022/01/16 21:03:51;;;;;;;13.03;11.73;;;5.70;99.90;;;;;;10516343;28;20277;-82
2022/01/16 21:08:53;;;;;;;12.50;11.10;;;5.70;99.90;;;;;;10511049;28;20601;-80
2022/01/16 21:13:57;;;;;;;12.40;11.10;;;5.70;99.90;;;;;;10544603;28;20211;-79
2022/01/16 21:19:01;;;;;;;11.37;10.27;;;5.70;99.90;;;;;;10515367;28;20192;-78
2022/01/16 21:24:05;;;;;;;11.83;10.60;;;5.70;99.90;;;;;;10525402;28;20303;-79
2022/01/16 21:29:07;;;;;;;10.57;9.47;;;5.70;99.90;;;;;;10524572;28;20207;-79
2022/01/16 21:34:10;;;;;;;11.77;10.30;;;5.70;99.90;;;;;;10490185;28;20220;-79
2022/01/16 21:39:14;;;;;;;11.60;10.40;;;5.70;99.90;;;;;;10525051;28;20222;-79
2022/01/16 21:44:16;;;;;;;14.10;11.27;;;5.80;99.90;;;;;;10499635;28;20217;-79
2022/01/16 21:49:23;;;;;;;12.80;11.50;;;5.90;99.90;;;;;;10501214;28;20582;-79
2022/01/16 21:54:28;;;;;;;14.80;12.70;;;5.90;99.90;;;;;;10515895;28;20226;-80
2022/01/16 21:59:30;;;;;;;12.97;11.67;;;5.90;99.90;;;;;;10519642;28;20189;-82
2022/01/16 22:04:34;;;;;;;12.80;11.40;;;6.00;99.90;;;;;;10513453;28;20247;-83
2022/01/16 22:09:36;;;;;;;12.10;10.90;;;6.00;99.90;;;;;;10502771;28;20197;-81
2022/01/16 22:14:38;;;;;;;13.10;11.70;;;6.00;99.90;;;;;;10530107;28;20279;-81
2022/01/16 22:19:42;;;;;;;13.57;12.20;;;6.00;99.90;;;;;;10515284;28;20278;-81
2022/01/16 22:24:45;;;;;;;13.83;12.50;;;6.00;99.90;;;;;;10509117;28;20661;-81
2022/01/16 22:29:48;;;;;;;15.13;12.50;;;6.00;99.90;;;;;;10517543;28;20192;-80
2022/01/16 22:34:52;;;;;;;13.43;11.57;;;5.90;99.90;;;;;;10512212;28;20212;-79
2022/01/16 22:39:54;;;;;;;14.57;13.07;;;5.90;99.90;;;;;;10502531;28;20199;-79
2022/01/16 22:44:59;;;;;;;13.40;12.00;;;6.00;99.90;;;;;;10485368;28;20315;-78
2022/01/16 22:50:04;;;;;;;14.87;13.33;;;6.00;99.90;;;;;;10497318;28;20193;-79
2022/01/16 22:55:07;;;;;;;12.33;11.03;;;5.90;99.90;;;;;;10496421;28;20213;-79
2022/01/16 23:00:13;;;;;;;13.63;12.23;;;5.90;99.90;;;;;;10500421;28;20200;-80
2022/01/16 23:05:17;;;;;;;12.00;10.60;;;5.80;99.90;;;;;;10522688;28;20223;-79
2022/01/16 23:10:19;;;;;;;12.80;11.40;;;5.70;99.90;;;;;;10525442;28;20253;-78
2022/01/16 23:15:21;;;;;;;13.47;11.90;;;5.70;99.90;;;;;;10504550;28;20204;-79
2022/01/16 23:20:25;;;;;;;12.27;11.07;;;5.60;99.90;;;;;;10490053;28;20202;-79
2022/01/16 23:25:28;;;;;;;12.90;11.23;;;5.60;99.90;;;;;;10544513;28;20206;-79
2022/01/16 23:30:30;;;;;;;13.00;11.63;;;5.60;99.90;;;;;;10504423;28;20221;-79
2022/01/16 23:35:33;;;;;;;12.10;10.90;;;5.50;99.90;;;;;;10504342;28;20239;-79
2022/01/16 23:40:37;;;;;;;11.80;10.70;;;5.50;99.90;;;;;;10526662;28;20245;-78
2022/01/16 23:45:42;;;;;;;11.70;10.60;;;5.60;99.90;;;;;;10487753;28;20220;-79
2022/01/16 23:50:45;;;;;;;11.37;10.23;;;5.70;99.90;;;;;;10504053;28;20207;-79
2022/01/16 23:55:47;;;;;;;10.70;9.63;;;5.80;99.90;;;;;;10504674;28;20217;-79
